sensor_id;sensor_type;location;lat;lon;timestamp;P1;durP1;ratioP1;P2;durP2;ratioP2
69625;SDS011;56847;51.984;5.088;2022-10-10T00:01:34;11.30;;;7.50;;
69625;SDS011;56847;51.984;5.088;2022-10-10T00:04:03;11.40;;;6.95;;
69625;SDS011;56847;51.984;5.088;2022-10-10T00:06:31;9.15;;;7.22;;
69625;SDS011;56847;51.984;5.088;2022-10-10T00:09:01;10.93;;;6.53;;
69625;SDS011;56847;51.984;5.088;2022-10-10T00:11:36;11.40;;;7.18;;
69625;SDS011;56847;51.984;5.088;2022-10-10T00:14:03;11.98;;;7.43;;
69625;SDS011;56847;51.984;5.088;2022-10-10T00:16:31;10.65;;;6.60;;
69625;SDS011;56847;51.984;5.088;2022-10-10T00:18:58;10.55;;;6.82;;
69625;SDS011;56847;51.984;5.088;2022-10-10T00:21:26;10.73;;;6.63;;
69625;SDS011;56847;51.984;5.088;2022-10-10T00:23:55;9.63;;;6.43;;
69625;SDS011;56847;51.984;5.088;2022-10-10T00:26:23;14.13;;;7.72;;
69625;SDS011;56847;51.984;5.088;2022-10-10T00:28:53;18.77;;;6.60;;
69625;SDS011;56847;51.984;5.088;2022-10-10T00:31:20;12.75;;;7.40;;
69625;SDS011;56847;51.984;5.088;2022-10-10T00:33:47;12.07;;;6.60;;
69625;SDS011;56847;51.984;5.088;2022-10-10T00:36:17;10.13;;;7.00;;
69625;SDS011;56847;51.984;5.088;2022-10-10T00:38:48;11.18;;;7.38;;
69625;SDS011;56847;51.984;5.088;2022-10-10T00:41:15;15.65;;;7.28;;
69625;SDS011;56847;51.984;5.088;2022-10-10T00:43:59;11.32;;;7.45;;
69625;SDS011;56847;51.984;5.088;2022-10-10T00:46:36;11.40;;;6.90;;
69625;SDS011;56847;51.984;5.088;2022-10-10T00:49:06;13.18;;;7.00;;
69625;SDS011;56847;51.984;5.088;2022-10-10T00:51:41;13.18;;;8.15;;
69625;SDS011;56847;51.984;5.088;2022-10-10T00:54:11;13.25;;;6.80;;
69625;SDS011;56847;51.984;5.088;2022-10-10T00:56:44;11.48;;;7.07;;
69625;SDS011;56847;51.984;5.088;2022-10-10T00:59:16;10.57;;;6.70;;
69625;SDS011;56847;51.984;5.088;2022-10-10T01:01:47;11.32;;;6.88;;
69625;SDS011;56847;51.984;5.088;2022-10-10T01:04:30;10.73;;;7.43;;
69625;SDS011;56847;51.984;5.088;2022-10-10T01:07:10;10.75;;;6.78;;
69625;SDS011;56847;51.984;5.088;2022-10-10T01:09:43;20.92;;;8.20;;
69625;SDS011;56847;51.984;5.088;2022-10-10T01:15:12;14.63;;;6.57;;
69625;SDS011;56847;51.984;5.088;2022-10-10T01:31:42;12.70;;;7.47;;
69625;SDS011;56847;51.984;5.088;2022-10-10T01:34:21;12.30;;;6.45;;
69625;SDS011;56847;51.984;5.088;2022-10-10T01:37:03;13.90;;;7.30;;
69625;SDS011;56847;51.984;5.088;2022-10-10T01:42:47;8.13;;;6.50;;
69625;SDS011;56847;51.984;5.088;2022-10-10T01:45:21;9.38;;;6.88;;
69625;SDS011;56847;51.984;5.088;2022-10-10T01:47:49;11.77;;;6.63;;
69625;SDS011;56847;51.984;5.088;2022-10-10T01:50:20;12.50;;;7.15;;
69625;SDS011;56847;51.984;5.088;2022-10-10T01:53:10;11.17;;;5.80;;
69625;SDS011;56847;51.984;5.088;2022-10-10T01:55:58;12.48;;;6.60;;
69625;SDS011;56847;51.984;5.088;2022-10-10T02:01:52;9.23;;;6.00;;
69625;SDS011;56847;51.984;5.088;2022-10-10T02:04:51;12.25;;;6.78;;
69625;SDS011;56847;51.984;5.088;2022-10-10T02:07:43;7.93;;;6.60;;
69625;SDS011;56847;51.984;5.088;2022-10-10T02:10:21;15.65;;;6.78;;
69625;SDS011;56847;51.984;5.088;2022-10-10T02:12:52;14.25;;;7.13;;
69625;SDS011;56847;51.984;5.088;2022-10-10T02:15:21;12.27;;;6.85;;
69625;SDS011;56847;51.984;5.088;2022-10-10T02:17:50;9.70;;;6.38;;
69625;SDS011;56847;51.984;5.088;2022-10-10T02:20:23;12.43;;;6.20;;
69625;SDS011;56847;51.984;5.088;2022-10-10T02:22:53;16.45;;;6.68;;
69625;SDS011;56847;51.984;5.088;2022-10-10T02:25:27;8.35;;;6.35;;
69625;SDS011;56847;51.984;5.088;2022-10-10T02:30:37;8.32;;;6.63;;
69625;SDS011;56847;51.984;5.088;2022-10-10T02:33:08;8.77;;;6.63;;
69625;SDS011;56847;51.984;5.088;2022-10-10T02:35:38;10.82;;;6.78;;
69625;SDS011;56847;51.984;5.088;2022-10-10T02:38:08;9.20;;;6.80;;
69625;SDS011;56847;51.984;5.088;2022-10-10T02:40:38;16.58;;;6.47;;
69625;SDS011;56847;51.984;5.088;2022-10-10T02:43:08;8.20;;;6.75;;
69625;SDS011;56847;51.984;5.088;2022-10-10T02:45:40;13.93;;;6.93;;
69625;SDS011;56847;51.984;5.088;2022-10-10T02:48:08;7.72;;;6.25;;
69625;SDS011;56847;51.984;5.088;2022-10-10T02:50:35;11.60;;;7.32;;
69625;SDS011;56847;51.984;5.088;2022-10-10T02:53:03;8.80;;;6.13;;
69625;SDS011;56847;51.984;5.088;2022-10-10T02:55:30;9.07;;;6.50;;
69625;SDS011;56847;51.984;5.088;2022-10-10T02:57:57;8.93;;;5.90;;
69625;SDS011;56847;51.984;5.088;2022-10-10T03:00:25;11.82;;;7.00;;
69625;SDS011;56847;51.984;5.088;2022-10-10T03:02:52;14.25;;;7.55;;
69625;SDS011;56847;51.984;5.088;2022-10-10T03:05:19;11.60;;;6.72;;
69625;SDS011;56847;51.984;5.088;2022-10-10T03:07:47;11.88;;;7.30;;
69625;SDS011;56847;51.984;5.088;2022-10-10T03:10:14;14.97;;;7.10;;
69625;SDS011;56847;51.984;5.088;2022-10-10T03:12:41;10.05;;;6.50;;
69625;SDS011;56847;51.984;5.088;2022-10-10T03:15:08;13.60;;;7.15;;
69625;SDS011;56847;51.984;5.088;2022-10-10T03:17:37;16.00;;;7.38;;
69625;SDS011;56847;51.984;5.088;2022-10-10T03:20:05;13.32;;;7.53;;
69625;SDS011;56847;51.984;5.088;2022-10-10T03:22:33;11.87;;;7.10;;
69625;SDS011;56847;51.984;5.088;2022-10-10T03:25:03;10.05;;;7.05;;
69625;SDS011;56847;51.984;5.088;2022-10-10T03:27:33;14.15;;;7.78;;
69625;SDS011;56847;51.984;5.088;2022-10-10T03:30:00;8.52;;;6.45;;
69625;SDS011;56847;51.984;5.088;2022-10-10T03:32:27;10.40;;;7.53;;
69625;SDS011;56847;51.984;5.088;2022-10-10T03:34:54;12.00;;;7.10;;
69625;SDS011;56847;51.984;5.088;2022-10-10T03:37:21;9.80;;;7.03;;
69625;SDS011;56847;51.984;5.088;2022-10-10T03:39:48;12.88;;;7.72;;
69625;SDS011;56847;51.984;5.088;2022-10-10T03:42:15;13.23;;;7.82;;
69625;SDS011;56847;51.984;5.088;2022-10-10T03:44:43;10.93;;;7.28;;
69625;SDS011;56847;51.984;5.088;2022-10-10T03:47:10;14.70;;;6.63;;
69625;SDS011;56847;51.984;5.088;2022-10-10T03:49:37;15.85;;;7.55;;
69625;SDS011;56847;51.984;5.088;2022-10-10T03:52:05;14.18;;;8.30;;
69625;SDS011;56847;51.984;5.088;2022-10-10T03:54:32;10.23;;;6.90;;
69625;SDS011;56847;51.984;5.088;2022-10-10T03:56:59;10.18;;;7.32;;
69625;SDS011;56847;51.984;5.088;2022-10-10T03:59:26;10.20;;;6.87;;
69625;SDS011;56847;51.984;5.088;2022-10-10T04:01:54;11.02;;;7.50;;
69625;SDS011;56847;51.984;5.088;2022-10-10T04:04:21;14.63;;;7.53;;
69625;SDS011;56847;51.984;5.088;2022-10-10T04:06:48;16.70;;;6.97;;
69625;SDS011;56847;51.984;5.088;2022-10-10T04:09:15;14.57;;;7.72;;
69625;SDS011;56847;51.984;5.088;2022-10-10T04:11:42;14.77;;;7.70;;
69625;SDS011;56847;51.984;5.088;2022-10-10T04:14:09;10.85;;;6.80;;
69625;SDS011;56847;51.984;5.088;2022-10-10T04:16:39;10.27;;;7.20;;
69625;SDS011;56847;51.984;5.088;2022-10-10T04:19:10;12.43;;;7.70;;
69625;SDS011;56847;51.984;5.088;2022-10-10T04:21:38;12.00;;;8.77;;
69625;SDS011;56847;51.984;5.088;2022-10-10T04:24:07;13.27;;;8.03;;
69625;SDS011;56847;51.984;5.088;2022-10-10T04:26:35;13.27;;;8.65;;
69625;SDS011;56847;51.984;5.088;2022-10-10T04:29:03;16.63;;;8.13;;
69625;SDS011;56847;51.984;5.088;2022-10-10T04:31:30;14.60;;;7.80;;
69625;SDS011;56847;51.984;5.088;2022-10-10T04:34:00;16.50;;;7.95;;
69625;SDS011;56847;51.984;5.088;2022-10-10T04:36:27;16.03;;;7.03;;
69625;SDS011;56847;51.984;5.088;2022-10-10T04:38:54;10.02;;;7.18;;
69625;SDS011;56847;51.984;5.088;2022-10-10T04:41:21;13.68;;;7.85;;
69625;SDS011;56847;51.984;5.088;2022-10-10T04:43:49;11.25;;;7.78;;
69625;SDS011;56847;51.984;5.088;2022-10-10T04:46:16;15.77;;;7.95;;
69625;SDS011;56847;51.984;5.088;2022-10-10T04:48:46;9.60;;;7.70;;
69625;SDS011;56847;51.984;5.088;2022-10-10T04:51:13;20.27;;;8.00;;
69625;SDS011;56847;51.984;5.088;2022-10-10T04:53:40;15.00;;;7.40;;
69625;SDS011;56847;51.984;5.088;2022-10-10T04:56:13;10.95;;;7.65;;
69625;SDS011;56847;51.984;5.088;2022-10-10T04:58:40;20.45;;;7.97;;
69625;SDS011;56847;51.984;5.088;2022-10-10T05:01:10;12.43;;;7.27;;
69625;SDS011;56847;51.984;5.088;2022-10-10T05:03:55;16.70;;;8.07;;
69625;SDS011;56847;51.984;5.088;2022-10-10T05:06:26;14.85;;;7.80;;
69625;SDS011;56847;51.984;5.088;2022-10-10T05:09:05;14.40;;;7.88;;
69625;SDS011;56847;51.984;5.088;2022-10-10T05:11:35;12.20;;;8.07;;
69625;SDS011;56847;51.984;5.088;2022-10-10T05:14:08;13.87;;;7.80;;
69625;SDS011;56847;51.984;5.088;2022-10-10T05:16:35;14.38;;;7.88;;
69625;SDS011;56847;51.984;5.088;2022-10-10T05:19:05;17.88;;;8.63;;
69625;SDS011;56847;51.984;5.088;2022-10-10T05:21:35;13.75;;;7.65;;
69625;SDS011;56847;51.984;5.088;2022-10-10T05:24:02;13.88;;;8.20;;
69625;SDS011;56847;51.984;5.088;2022-10-10T05:26:33;14.60;;;8.40;;
69625;SDS011;56847;51.984;5.088;2022-10-10T05:29:06;17.20;;;7.88;;
69625;SDS011;56847;51.984;5.088;2022-10-10T05:31:33;19.80;;;8.32;;
69625;SDS011;56847;51.984;5.088;2022-10-10T05:34:01;18.35;;;8.15;;
69625;SDS011;56847;51.984;5.088;2022-10-10T05:36:28;12.40;;;8.85;;
69625;SDS011;56847;51.984;5.088;2022-10-10T05:38:55;16.83;;;7.80;;
69625;SDS011;56847;51.984;5.088;2022-10-10T05:41:36;12.60;;;7.95;;
69625;SDS011;56847;51.984;5.088;2022-10-10T05:44:06;12.20;;;8.65;;
69625;SDS011;56847;51.984;5.088;2022-10-10T05:46:43;16.77;;;8.02;;
69625;SDS011;56847;51.984;5.088;2022-10-10T05:49:12;18.58;;;8.55;;
69625;SDS011;56847;51.984;5.088;2022-10-10T05:51:39;18.23;;;7.87;;
69625;SDS011;56847;51.984;5.088;2022-10-10T05:54:13;14.77;;;8.35;;
69625;SDS011;56847;51.984;5.088;2022-10-10T05:56:43;15.75;;;8.80;;
69625;SDS011;56847;51.984;5.088;2022-10-10T05:59:20;17.52;;;7.72;;
69625;SDS011;56847;51.984;5.088;2022-10-10T06:01:54;22.95;;;8.43;;
69625;SDS011;56847;51.984;5.088;2022-10-10T06:04:50;15.83;;;9.30;;
69625;SDS011;56847;51.984;5.088;2022-10-10T06:07:26;19.42;;;7.35;;
69625;SDS011;56847;51.984;5.088;2022-10-10T06:10:21;15.63;;;8.65;;
69625;SDS011;56847;51.984;5.088;2022-10-10T06:13:20;21.15;;;7.55;;
69625;SDS011;56847;51.984;5.088;2022-10-10T06:15:50;23.05;;;8.93;;
69625;SDS011;56847;51.984;5.088;2022-10-10T06:18:27;23.10;;;8.30;;
69625;SDS011;56847;51.984;5.088;2022-10-10T07:16:21;19.45;;;7.57;;
69625;SDS011;56847;51.984;5.088;2022-10-10T07:18:48;13.17;;;6.50;;
69625;SDS011;56847;51.984;5.088;2022-10-10T07:21:15;13.43;;;7.85;;
69625;SDS011;56847;51.984;5.088;2022-10-10T07:23:42;13.55;;;7.93;;
69625;SDS011;56847;51.984;5.088;2022-10-10T07:26:10;15.88;;;6.82;;
69625;SDS011;56847;51.984;5.088;2022-10-10T07:28:38;16.10;;;7.60;;
69625;SDS011;56847;51.984;5.088;2022-10-10T07:31:07;13.17;;;7.53;;
69625;SDS011;56847;51.984;5.088;2022-10-10T07:33:36;11.70;;;7.43;;
69625;SDS011;56847;51.984;5.088;2022-10-10T07:36:12;15.30;;;7.28;;
69625;SDS011;56847;51.984;5.088;2022-10-10T07:38:40;16.45;;;7.20;;
69625;SDS011;56847;51.984;5.088;2022-10-10T07:41:08;12.55;;;7.00;;
69625;SDS011;56847;51.984;5.088;2022-10-10T07:43:37;18.80;;;7.33;;
69625;SDS011;56847;51.984;5.088;2022-10-10T07:46:05;11.63;;;6.63;;
69625;SDS011;56847;51.984;5.088;2022-10-10T07:48:39;11.85;;;7.60;;
69625;SDS011;56847;51.984;5.088;2022-10-10T07:51:06;15.50;;;7.38;;
69625;SDS011;56847;51.984;5.088;2022-10-10T07:53:33;15.05;;;8.27;;
69625;SDS011;56847;51.984;5.088;2022-10-10T07:56:02;12.23;;;7.23;;
69625;SDS011;56847;51.984;5.088;2022-10-10T07:58:30;12.32;;;7.25;;
69625;SDS011;56847;51.984;5.088;2022-10-10T08:01:05;15.23;;;8.07;;
69625;SDS011;56847;51.984;5.088;2022-10-10T08:03:34;14.60;;;6.47;;
69625;SDS011;56847;51.984;5.088;2022-10-10T08:06:03;20.55;;;8.70;;
69625;SDS011;56847;51.984;5.088;2022-10-10T08:08:32;17.93;;;7.20;;
69625;SDS011;56847;51.984;5.088;2022-10-10T08:11:06;19.65;;;6.60;;
69625;SDS011;56847;51.984;5.088;2022-10-10T08:13:34;12.77;;;7.78;;
69625;SDS011;56847;51.984;5.088;2022-10-10T08:16:03;47.60;;;7.60;;
69625;SDS011;56847;51.984;5.088;2022-10-10T08:18:30;19.92;;;6.72;;
69625;SDS011;56847;51.984;5.088;2022-10-10T08:20:58;13.80;;;7.07;;
69625;SDS011;56847;51.984;5.088;2022-10-10T08:23:26;13.38;;;6.65;;
69625;SDS011;56847;51.984;5.088;2022-10-10T08:25:56;14.48;;;6.85;;
69625;SDS011;56847;51.984;5.088;2022-10-10T08:28:24;11.57;;;6.80;;
69625;SDS011;56847;51.984;5.088;2022-10-10T08:30:52;16.38;;;7.20;;
69625;SDS011;56847;51.984;5.088;2022-10-10T08:33:19;11.77;;;6.23;;
69625;SDS011;56847;51.984;5.088;2022-10-10T08:35:47;15.15;;;7.13;;
69625;SDS011;56847;51.984;5.088;2022-10-10T08:38:14;17.25;;;7.63;;
69625;SDS011;56847;51.984;5.088;2022-10-10T08:40:42;24.10;;;6.88;;
69625;SDS011;56847;51.984;5.088;2022-10-10T08:43:16;18.30;;;7.25;;
69625;SDS011;56847;51.984;5.088;2022-10-10T08:45:49;16.23;;;7.17;;
69625;SDS011;56847;51.984;5.088;2022-10-10T08:48:20;14.82;;;6.53;;
69625;SDS011;56847;51.984;5.088;2022-10-10T08:50:57;14.35;;;6.57;;
69625;SDS011;56847;51.984;5.088;2022-10-10T08:53:35;13.05;;;7.32;;
69625;SDS011;56847;51.984;5.088;2022-10-10T08:56:06;13.00;;;7.40;;
69625;SDS011;56847;51.984;5.088;2022-10-10T08:58:42;10.90;;;6.47;;
69625;SDS011;56847;51.984;5.088;2022-10-10T09:01:15;17.17;;;7.72;;
69625;SDS011;56847;51.984;5.088;2022-10-10T09:03:54;13.52;;;7.50;;
69625;SDS011;56847;51.984;5.088;2022-10-10T09:14:34;15.13;;;7.30;;
69625;SDS011;56847;51.984;5.088;2022-10-10T09:17:17;18.85;;;7.88;;
69625;SDS011;56847;51.984;5.088;2022-10-10T09:22:58;14.32;;;7.57;;
69625;SDS011;56847;51.984;5.088;2022-10-10T09:25:38;15.17;;;7.33;;
69625;SDS011;56847;51.984;5.088;2022-10-10T09:28:53;13.40;;;7.78;;
69625;SDS011;56847;51.984;5.088;2022-10-10T09:31:38;17.02;;;8.30;;
69625;SDS011;56847;51.984;5.088;2022-10-10T09:34:18;12.18;;;7.45;;
69625;SDS011;56847;51.984;5.088;2022-10-10T09:36:52;12.02;;;7.47;;
69625;SDS011;56847;51.984;5.088;2022-10-10T09:41:57;18.55;;;7.22;;
69625;SDS011;56847;51.984;5.088;2022-10-10T09:44:26;18.23;;;8.45;;
69625;SDS011;56847;51.984;5.088;2022-10-10T09:46:53;18.85;;;7.65;;
69625;SDS011;56847;51.984;5.088;2022-10-10T09:49:20;25.83;;;8.00;;
69625;SDS011;56847;51.984;5.088;2022-10-10T09:51:47;17.17;;;7.43;;
69625;SDS011;56847;51.984;5.088;2022-10-10T09:54:15;14.68;;;7.43;;
69625;SDS011;56847;51.984;5.088;2022-10-10T09:56:48;15.50;;;7.47;;
69625;SDS011;56847;51.984;5.088;2022-10-10T09:59:36;13.43;;;7.28;;
69625;SDS011;56847;51.984;5.088;2022-10-10T10:02:46;17.63;;;7.20;;
69625;SDS011;56847;51.984;5.088;2022-10-10T10:04:53;14.73;;;7.30;;
69625;SDS011;56847;51.984;5.088;2022-10-10T10:07:28;16.55;;;6.43;;
69625;SDS011;56847;51.984;5.088;2022-10-10T10:09:58;20.60;;;7.22;;
69625;SDS011;56847;51.984;5.088;2022-10-10T10:12:28;9.40;;;6.57;;
69625;SDS011;56847;51.984;5.088;2022-10-10T10:15:03;21.08;;;6.30;;
69625;SDS011;56847;51.984;5.088;2022-10-10T10:17:32;18.00;;;6.80;;
69625;SDS011;56847;51.984;5.088;2022-10-10T10:19:59;14.20;;;6.60;;
69625;SDS011;56847;51.984;5.088;2022-10-10T10:22:30;17.98;;;7.75;;
69625;SDS011;56847;51.984;5.088;2022-10-10T10:28:18;25.45;;;8.35;;
69625;SDS011;56847;51.984;5.088;2022-10-10T10:30:46;12.83;;;5.83;;
69625;SDS011;56847;51.984;5.088;2022-10-10T10:49:45;11.45;;;7.05;;
69625;SDS011;56847;51.984;5.088;2022-10-10T10:58:16;16.27;;;7.07;;
69625;SDS011;56847;51.984;5.088;2022-10-10T11:01:21;17.05;;;7.60;;
69625;SDS011;56847;51.984;5.088;2022-10-10T11:07:46;11.90;;;6.38;;
69625;SDS011;56847;51.984;5.088;2022-10-10T11:15:47;22.08;;;8.35;;
69625;SDS011;56847;51.984;5.088;2022-10-10T11:21:23;26.10;;;7.57;;
69625;SDS011;56847;51.984;5.088;2022-10-10T11:23:56;19.98;;;7.45;;
69625;SDS011;56847;51.984;5.088;2022-10-10T11:26:46;16.17;;;7.97;;
69625;SDS011;56847;51.984;5.088;2022-10-10T11:29:29;13.50;;;7.55;;
69625;SDS011;56847;51.984;5.088;2022-10-10T11:32:49;20.75;;;6.72;;
69625;SDS011;56847;51.984;5.088;2022-10-10T11:37:45;16.23;;;7.82;;
69625;SDS011;56847;51.984;5.088;2022-10-10T11:40:25;15.50;;;7.73;;
69625;SDS011;56847;51.984;5.088;2022-10-10T11:43:23;23.15;;;8.77;;
69625;SDS011;56847;51.984;5.088;2022-10-10T11:46:01;26.13;;;8.18;;
69625;SDS011;56847;51.984;5.088;2022-10-10T11:51:36;17.65;;;8.35;;
69625;SDS011;56847;51.984;5.088;2022-10-10T11:54:49;13.80;;;7.70;;
69625;SDS011;56847;51.984;5.088;2022-10-10T12:00:10;17.83;;;8.82;;
69625;SDS011;56847;51.984;5.088;2022-10-10T12:02:39;18.75;;;8.45;;
69625;SDS011;56847;51.984;5.088;2022-10-10T12:05:27;28.70;;;12.48;;
69625;SDS011;56847;51.984;5.088;2022-10-10T12:12:59;19.90;;;9.95;;
69625;SDS011;56847;51.984;5.088;2022-10-10T12:15:42;15.52;;;8.80;;
69625;SDS011;56847;51.984;5.088;2022-10-10T12:18:23;23.80;;;12.70;;
69625;SDS011;56847;51.984;5.088;2022-10-10T12:21:01;26.67;;;13.43;;
69625;SDS011;56847;51.984;5.088;2022-10-10T12:23:31;20.05;;;10.27;;
69625;SDS011;56847;51.984;5.088;2022-10-10T12:25:59;19.67;;;12.05;;
69625;SDS011;56847;51.984;5.088;2022-10-10T12:28:34;18.00;;;10.38;;
69625;SDS011;56847;51.984;5.088;2022-10-10T12:31:35;17.38;;;9.48;;
69625;SDS011;56847;51.984;5.088;2022-10-10T12:34:05;25.10;;;9.80;;
69625;SDS011;56847;51.984;5.088;2022-10-10T12:36:41;18.30;;;9.65;;
69625;SDS011;56847;51.984;5.088;2022-10-10T12:49:51;18.35;;;9.50;;
69625;SDS011;56847;51.984;5.088;2022-10-10T12:52:21;18.17;;;10.82;;
69625;SDS011;56847;51.984;5.088;2022-10-10T12:55:24;20.45;;;10.07;;
69625;SDS011;56847;51.984;5.088;2022-10-10T12:58:03;15.82;;;9.85;;
69625;SDS011;56847;51.984;5.088;2022-10-10T13:00:42;17.73;;;9.37;;
69625;SDS011;56847;51.984;5.088;2022-10-10T13:03:16;25.13;;;9.00;;
69625;SDS011;56847;51.984;5.088;2022-10-10T13:06:04;19.75;;;9.60;;
69625;SDS011;56847;51.984;5.088;2022-10-10T13:08:37;14.70;;;7.13;;
69625;SDS011;56847;51.984;5.088;2022-10-10T13:11:08;16.60;;;7.18;;
69625;SDS011;56847;51.984;5.088;2022-10-10T13:13:49;13.63;;;6.23;;
69625;SDS011;56847;51.984;5.088;2022-10-10T13:16:19;19.88;;;7.20;;
69625;SDS011;56847;51.984;5.088;2022-10-10T13:18:52;12.98;;;6.15;;
69625;SDS011;56847;51.984;5.088;2022-10-10T13:21:27;14.05;;;6.90;;
69625;SDS011;56847;51.984;5.088;2022-10-10T13:24:03;18.05;;;7.03;;
69625;SDS011;56847;51.984;5.088;2022-10-10T13:26:32;13.33;;;6.07;;
69625;SDS011;56847;51.984;5.088;2022-10-10T13:31:44;14.02;;;5.25;;
69625;SDS011;56847;51.984;5.088;2022-10-10T13:34:12;7.10;;;2.40;;
69625;SDS011;56847;51.984;5.088;2022-10-10T13:36:42;9.13;;;2.85;;
69625;SDS011;56847;51.984;5.088;2022-10-10T13:39:16;4.40;;;2.33;;
69625;SDS011;56847;51.984;5.088;2022-10-10T13:41:47;4.13;;;1.38;;
69625;SDS011;56847;51.984;5.088;2022-10-10T13:44:19;5.53;;;1.70;;
69625;SDS011;56847;51.984;5.088;2022-10-10T13:46:48;1.55;;;1.08;;
69625;SDS011;56847;51.984;5.088;2022-10-10T13:49:20;2.50;;;1.17;;
69625;SDS011;56847;51.984;5.088;2022-10-10T13:51:59;1.90;;;0.70;;
69625;SDS011;56847;51.984;5.088;2022-10-10T13:54:35;4.95;;;1.30;;
69625;SDS011;56847;51.984;5.088;2022-10-10T13:57:12;4.03;;;1.40;;
69625;SDS011;56847;51.984;5.088;2022-10-10T13:59:45;4.18;;;1.40;;
69625;SDS011;56847;51.984;5.088;2022-10-10T14:02:16;4.28;;;1.20;;
69625;SDS011;56847;51.984;5.088;2022-10-10T14:04:51;2.47;;;1.10;;
69625;SDS011;56847;51.984;5.088;2022-10-10T14:07:21;4.15;;;1.20;;
69625;SDS011;56847;51.984;5.088;2022-10-10T14:09:57;4.60;;;1.63;;
69625;SDS011;56847;51.984;5.088;2022-10-10T14:12:37;13.93;;;2.10;;
69625;SDS011;56847;51.984;5.088;2022-10-10T14:20:39;8.00;;;1.77;;
69625;SDS011;56847;51.984;5.088;2022-10-10T14:23:06;12.95;;;2.22;;
69625;SDS011;56847;51.984;5.088;2022-10-10T14:25:35;9.05;;;1.60;;
69625;SDS011;56847;51.984;5.088;2022-10-10T14:28:17;9.85;;;2.03;;
69625;SDS011;56847;51.984;5.088;2022-10-10T14:30:47;9.83;;;1.93;;
69625;SDS011;56847;51.984;5.088;2022-10-10T14:33:14;8.60;;;1.95;;
69625;SDS011;56847;51.984;5.088;2022-10-10T14:35:45;19.40;;;2.38;;
69625;SDS011;56847;51.984;5.088;2022-10-10T14:38:14;15.15;;;2.08;;
69625;SDS011;56847;51.984;5.088;2022-10-10T14:40:42;17.55;;;2.67;;
69625;SDS011;56847;51.984;5.088;2022-10-10T14:43:13;13.13;;;2.63;;
69625;SDS011;56847;51.984;5.088;2022-10-10T14:45:42;17.20;;;2.45;;
69625;SDS011;56847;51.984;5.088;2022-10-10T14:48:10;14.82;;;2.83;;
69625;SDS011;56847;51.984;5.088;2022-10-10T14:50:42;12.35;;;2.30;;
69625;SDS011;56847;51.984;5.088;2022-10-10T14:53:11;23.65;;;3.03;;
69625;SDS011;56847;51.984;5.088;2022-10-10T14:55:40;15.67;;;2.10;;
69625;SDS011;56847;51.984;5.088;2022-10-10T15:00:42;17.80;;;2.90;;
69625;SDS011;56847;51.984;5.088;2022-10-10T15:03:09;15.20;;;2.60;;
69625;SDS011;56847;51.984;5.088;2022-10-10T15:05:37;17.60;;;2.40;;
69625;SDS011;56847;51.984;5.088;2022-10-10T15:08:04;15.43;;;2.30;;
69625;SDS011;56847;51.984;5.088;2022-10-10T15:10:32;13.57;;;2.35;;
69625;SDS011;56847;51.984;5.088;2022-10-10T15:13:01;22.05;;;2.85;;
69625;SDS011;56847;51.984;5.088;2022-10-10T15:15:31;18.15;;;4.45;;
69625;SDS011;56847;51.984;5.088;2022-10-10T15:17:58;25.80;;;3.75;;
69625;SDS011;56847;51.984;5.088;2022-10-10T15:20:26;24.80;;;2.57;;
69625;SDS011;56847;51.984;5.088;2022-10-10T15:23:05;24.73;;;2.47;;
69625;SDS011;56847;51.984;5.088;2022-10-10T15:25:33;15.52;;;3.20;;
69625;SDS011;56847;51.984;5.088;2022-10-10T15:28:01;20.20;;;3.92;;
69625;SDS011;56847;51.984;5.088;2022-10-10T15:30:28;19.45;;;2.72;;
69625;SDS011;56847;51.984;5.088;2022-10-10T15:32:55;20.97;;;2.47;;
69625;SDS011;56847;51.984;5.088;2022-10-10T15:35:23;17.73;;;2.70;;
69625;SDS011;56847;51.984;5.088;2022-10-10T15:37:51;16.52;;;3.65;;
69625;SDS011;56847;51.984;5.088;2022-10-10T15:40:20;24.17;;;2.88;;
69625;SDS011;56847;51.984;5.088;2022-10-10T15:42:48;21.40;;;2.35;;
69625;SDS011;56847;51.984;5.088;2022-10-10T15:45:16;16.73;;;2.43;;
69625;SDS011;56847;51.984;5.088;2022-10-10T15:48:04;18.17;;;3.00;;
69625;SDS011;56847;51.984;5.088;2022-10-10T15:50:31;17.20;;;2.88;;
69625;SDS011;56847;51.984;5.088;2022-10-10T15:53:02;18.67;;;3.15;;
69625;SDS011;56847;51.984;5.088;2022-10-10T15:55:30;22.27;;;3.50;;
69625;SDS011;56847;51.984;5.088;2022-10-10T15:57:56;15.97;;;2.60;;
69625;SDS011;56847;51.984;5.088;2022-10-10T16:00:24;21.30;;;3.10;;
69625;SDS011;56847;51.984;5.088;2022-10-10T16:02:51;15.35;;;3.13;;
69625;SDS011;56847;51.984;5.088;2022-10-10T16:05:17;13.02;;;2.58;;
69625;SDS011;56847;51.984;5.088;2022-10-10T16:07:44;18.50;;;3.10;;
69625;SDS011;56847;51.984;5.088;2022-10-10T16:10:14;11.17;;;2.27;;
69625;SDS011;56847;51.984;5.088;2022-10-10T16:12:41;14.23;;;3.10;;
69625;SDS011;56847;51.984;5.088;2022-10-10T16:15:08;20.98;;;2.80;;
69625;SDS011;56847;51.984;5.088;2022-10-10T16:17:35;17.98;;;2.55;;
69625;SDS011;56847;51.984;5.088;2022-10-10T16:20:02;22.42;;;2.90;;
69625;SDS011;56847;51.984;5.088;2022-10-10T16:22:29;9.87;;;2.10;;
69625;SDS011;56847;51.984;5.088;2022-10-10T16:24:59;17.90;;;2.83;;
69625;SDS011;56847;51.984;5.088;2022-10-10T16:27:47;19.77;;;3.53;;
69625;SDS011;56847;51.984;5.088;2022-10-10T16:30:14;17.40;;;2.60;;
69625;SDS011;56847;51.984;5.088;2022-10-10T16:32:42;17.50;;;3.45;;
69625;SDS011;56847;51.984;5.088;2022-10-10T16:35:11;20.17;;;3.30;;
69625;SDS011;56847;51.984;5.088;2022-10-10T16:37:38;17.05;;;3.25;;
69625;SDS011;56847;51.984;5.088;2022-10-10T16:40:05;23.88;;;2.90;;
69625;SDS011;56847;51.984;5.088;2022-10-10T16:42:33;12.40;;;2.28;;
69625;SDS011;56847;51.984;5.088;2022-10-10T16:45:00;18.90;;;2.80;;
69625;SDS011;56847;51.984;5.088;2022-10-10T16:47:30;14.57;;;2.60;;
69625;SDS011;56847;51.984;5.088;2022-10-10T16:49:56;13.30;;;2.45;;
69625;SDS011;56847;51.984;5.088;2022-10-10T16:52:23;13.05;;;2.85;;
69625;SDS011;56847;51.984;5.088;2022-10-10T16:54:50;19.27;;;2.80;;
69625;SDS011;56847;51.984;5.088;2022-10-10T16:57:18;24.77;;;3.60;;
69625;SDS011;56847;51.984;5.088;2022-10-10T16:59:45;17.37;;;3.87;;
69625;SDS011;56847;51.984;5.088;2022-10-10T17:02:12;13.80;;;3.92;;
69625;SDS011;56847;51.984;5.088;2022-10-10T17:04:39;21.35;;;4.65;;
69625;SDS011;56847;51.984;5.088;2022-10-10T17:07:06;18.35;;;4.40;;
69625;SDS011;56847;51.984;5.088;2022-10-10T17:09:33;24.58;;;6.45;;
69625;SDS011;56847;51.984;5.088;2022-10-10T17:11:59;25.77;;;6.73;;
69625;SDS011;56847;51.984;5.088;2022-10-10T17:14:27;31.08;;;5.45;;
69625;SDS011;56847;51.984;5.088;2022-10-10T17:16:57;19.23;;;5.80;;
69625;SDS011;56847;51.984;5.088;2022-10-10T17:19:37;18.58;;;4.22;;
69625;SDS011;56847;51.984;5.088;2022-10-10T17:22:04;18.05;;;3.80;;
69625;SDS011;56847;51.984;5.088;2022-10-10T17:24:31;16.60;;;2.80;;
69625;SDS011;56847;51.984;5.088;2022-10-10T17:26:58;19.55;;;3.17;;
69625;SDS011;56847;51.984;5.088;2022-10-10T17:29:25;25.92;;;4.35;;
69625;SDS011;56847;51.984;5.088;2022-10-10T17:31:52;18.90;;;4.65;;
69625;SDS011;56847;51.984;5.088;2022-10-10T17:34:19;16.42;;;2.83;;
69625;SDS011;56847;51.984;5.088;2022-10-10T17:36:46;21.90;;;3.70;;
69625;SDS011;56847;51.984;5.088;2022-10-10T17:39:13;20.92;;;3.30;;
69625;SDS011;56847;51.984;5.088;2022-10-10T17:41:40;18.15;;;4.57;;
69625;SDS011;56847;51.984;5.088;2022-10-10T17:44:07;16.48;;;5.05;;
69625;SDS011;56847;51.984;5.088;2022-10-10T17:46:36;21.73;;;6.60;;
69625;SDS011;56847;51.984;5.088;2022-10-10T17:49:05;19.13;;;4.30;;
69625;SDS011;56847;51.984;5.088;2022-10-10T17:51:33;19.33;;;4.20;;